sensor_id;sensor_type;location;lat;lon;timestamp;P1;durP1;ratioP1;P2;durP2;ratioP2
73840;SDS011;62183;49.006;12.102;2022-07-09T16:58:38;10.18;;;9.57;;
73840;SDS011;62183;49.006;12.102;2022-07-09T17:01:04;9.77;;;9.20;;
73840;SDS011;62183;49.006;12.102;2022-07-09T17:03:29;9.10;;;8.40;;
73840;SDS011;62183;49.006;12.102;2022-07-09T17:05:54;9.70;;;9.00;;
73840;SDS011;62183;49.006;12.102;2022-07-09T17:08:19;9.47;;;8.70;;
73840;SDS011;62183;49.006;12.102;2022-07-09T17:10:45;9.45;;;8.60;;
73840;SDS011;62183;49.006;12.102;2022-07-09T17:13:10;8.80;;;8.30;;
73840;SDS011;62183;49.006;12.102;2022-07-09T17:15:35;8.73;;;8.02;;
73840;SDS011;62183;49.006;12.102;2022-07-09T17:18:01;9.00;;;8.30;;
73840;SDS011;62183;49.006;12.102;2022-07-09T17:20:26;9.30;;;8.70;;
73840;SDS011;62183;49.006;12.102;2022-07-09T17:22:51;9.10;;;8.57;;
73840;SDS011;62183;49.006;12.102;2022-07-09T17:25:16;9.13;;;8.50;;
73840;SDS011;62183;49.006;12.102;2022-07-09T17:27:41;9.30;;;8.70;;
73840;SDS011;62183;49.006;12.102;2022-07-09T17:30:07;8.50;;;8.00;;
73840;SDS011;62183;49.006;12.102;2022-07-09T17:32:32;8.25;;;7.65;;
73840;SDS011;62183;49.006;12.102;2022-07-09T17:34:57;8.97;;;8.30;;
73840;SDS011;62183;49.006;12.102;2022-07-09T17:37:22;7.83;;;7.33;;
73840;SDS011;62183;49.006;12.102;2022-07-09T17:39:48;8.90;;;8.30;;
73840;SDS011;62183;49.006;12.102;2022-07-09T17:42:13;7.50;;;7.10;;
73840;SDS011;62183;49.006;12.102;2022-07-09T17:44:38;7.67;;;7.17;;
73840;SDS011;62183;49.006;12.102;2022-07-09T17:47:03;8.27;;;7.70;;
73840;SDS011;62183;49.006;12.102;2022-07-09T17:49:29;8.60;;;8.00;;
73840;SDS011;62183;49.006;12.102;2022-07-09T17:51:54;8.27;;;7.67;;
73840;SDS011;62183;49.006;12.102;2022-07-09T17:54:19;8.20;;;7.70;;
73840;SDS011;62183;49.006;12.102;2022-07-09T17:56:44;9.40;;;8.63;;
73840;SDS011;62183;49.006;12.102;2022-07-09T17:59:09;8.37;;;7.83;;
73840;SDS011;62183;49.006;12.102;2022-07-09T18:01:35;9.47;;;8.80;;
73840;SDS011;62183;49.006;12.102;2022-07-09T18:04:00;8.55;;;8.05;;
73840;SDS011;62183;49.006;12.102;2022-07-09T18:06:25;9.03;;;8.37;;
73840;SDS011;62183;49.006;12.102;2022-07-09T18:08:50;8.90;;;8.20;;
73840;SDS011;62183;49.006;12.102;2022-07-09T18:11:15;8.47;;;7.97;;
73840;SDS011;62183;49.006;12.102;2022-07-09T18:13:41;8.17;;;7.67;;
73840;SDS011;62183;49.006;12.102;2022-07-09T18:16:06;9.10;;;8.20;;
73840;SDS011;62183;49.006;12.102;2022-07-09T18:18:31;8.60;;;8.10;;
73840;SDS011;62183;49.006;12.102;2022-07-09T18:20:56;9.17;;;8.57;;
73840;SDS011;62183;49.006;12.102;2022-07-09T18:23:22;8.83;;;8.23;;
73840;SDS011;62183;49.006;12.102;2022-07-09T18:25:47;8.50;;;7.90;;
73840;SDS011;62183;49.006;12.102;2022-07-09T18:28:12;8.80;;;8.10;;
73840;SDS011;62183;49.006;12.102;2022-07-09T18:30:37;9.63;;;8.93;;
73840;SDS011;62183;49.006;12.102;2022-07-09T18:33:02;9.47;;;8.83;;
73840;SDS011;62183;49.006;12.102;2022-07-09T18:35:28;9.37;;;8.67;;
73840;SDS011;62183;49.006;12.102;2022-07-09T18:37:53;8.67;;;8.17;;
73840;SDS011;62183;49.006;12.102;2022-07-09T18:40:18;8.70;;;8.20;;
73840;SDS011;62183;49.006;12.102;2022-07-09T18:42:43;10.30;;;9.50;;
73840;SDS011;62183;49.006;12.102;2022-07-09T18:45:08;9.70;;;9.00;;
73840;SDS011;62183;49.006;12.102;2022-07-09T18:47:34;9.52;;;8.82;;
73840;SDS011;62183;49.006;12.102;2022-07-09T18:49:59;9.30;;;8.60;;
73840;SDS011;62183;49.006;12.102;2022-07-09T18:52:24;9.13;;;8.43;;
73840;SDS011;62183;49.006;12.102;2022-07-09T18:54:49;8.37;;;7.87;;
73840;SDS011;62183;49.006;12.102;2022-07-09T18:57:15;9.00;;;8.30;;
73840;SDS011;62183;49.006;12.102;2022-07-09T18:59:40;8.67;;;8.17;;
73840;SDS011;62183;49.006;12.102;2022-07-09T19:02:05;8.50;;;8.00;;
73840;SDS011;62183;49.006;12.102;2022-07-09T19:04:30;9.13;;;8.43;;
73840;SDS011;62183;49.006;12.102;2022-07-09T19:06:55;8.67;;;8.07;;
73840;SDS011;62183;49.006;12.102;2022-07-09T19:09:21;9.27;;;8.57;;
73840;SDS011;62183;49.006;12.102;2022-07-09T19:11:46;9.02;;;8.32;;
73840;SDS011;62183;49.006;12.102;2022-07-09T19:14:11;8.87;;;8.27;;
73840;SDS011;62183;49.006;12.102;2022-07-09T19:16:36;8.53;;;7.93;;
73840;SDS011;62183;49.006;12.102;2022-07-09T19:19:01;8.53;;;7.93;;
73840;SDS011;62183;49.006;12.102;2022-07-09T19:21:27;8.87;;;8.30;;
73840;SDS011;62183;49.006;12.102;2022-07-09T19:23:52;8.95;;;8.35;;
73840;SDS011;62183;49.006;12.102;2022-07-09T19:26:18;9.03;;;8.40;;
73840;SDS011;62183;49.006;12.102;2022-07-09T19:28:43;8.53;;;8.03;;
73840;SDS011;62183;49.006;12.102;2022-07-09T19:31:08;9.30;;;8.60;;
73840;SDS011;62183;49.006;12.102;2022-07-09T19:33:33;9.73;;;8.93;;
73840;SDS011;62183;49.006;12.102;2022-07-09T19:35:59;9.90;;;9.00;;
73840;SDS011;62183;49.006;12.102;2022-07-09T19:38:24;9.03;;;8.33;;
73840;SDS011;62183;49.006;12.102;2022-07-09T19:40:49;9.07;;;8.37;;
73840;SDS011;62183;49.006;12.102;2022-07-09T19:43:14;9.10;;;8.50;;
73840;SDS011;62183;49.006;12.102;2022-07-09T19:45:39;9.50;;;8.70;;
73840;SDS011;62183;49.006;12.102;2022-07-09T19:48:05;8.73;;;8.13;;
73840;SDS011;62183;49.006;12.102;2022-07-09T19:50:30;8.80;;;8.20;;
73840;SDS011;62183;49.006;12.102;2022-07-09T19:52:55;9.17;;;8.37;;
73840;SDS011;62183;49.006;12.102;2022-07-09T19:55:20;9.17;;;8.40;;
73840;SDS011;62183;49.006;12.102;2022-07-09T19:57:45;8.93;;;8.30;;
73840;SDS011;62183;49.006;12.102;2022-07-09T20:00:11;9.10;;;8.30;;
73840;SDS011;62183;49.006;12.102;2022-07-09T20:02:36;10.02;;;9.25;;
73840;SDS011;62183;49.006;12.102;2022-07-09T20:05:01;9.10;;;8.40;;
73840;SDS011;62183;49.006;12.102;2022-07-09T20:07:26;8.80;;;8.07;;
73840;SDS011;62183;49.006;12.102;2022-07-09T20:09:52;8.57;;;7.97;;
73840;SDS011;62183;49.006;12.102;2022-07-09T20:12:17;9.87;;;9.00;;
73840;SDS011;62183;49.006;12.102;2022-07-09T20:14:42;9.07;;;8.47;;
73840;SDS011;62183;49.006;12.102;2022-07-09T20:17:07;9.70;;;8.80;;
73840;SDS011;62183;49.006;12.102;2022-07-09T20:19:32;9.17;;;8.57;;
73840;SDS011;62183;49.006;12.102;2022-07-09T20:21:57;9.20;;;8.60;;
73840;SDS011;62183;49.006;12.102;2022-07-09T20:24:23;10.33;;;9.23;;
73840;SDS011;62183;49.006;12.102;2022-07-09T20:26:48;9.63;;;8.90;;
73840;SDS011;62183;49.006;12.102;2022-07-09T20:29:13;10.07;;;9.27;;
73840;SDS011;62183;49.006;12.102;2022-07-09T20:31:38;9.63;;;8.87;;
73840;SDS011;62183;49.006;12.102;2022-07-09T20:34:03;9.30;;;8.60;;
73840;SDS011;62183;49.006;12.102;2022-07-09T20:36:28;9.13;;;8.43;;
73840;SDS011;62183;49.006;12.102;2022-07-09T20:38:54;9.50;;;8.70;;
73840;SDS011;62183;49.006;12.102;2022-07-09T20:41:19;9.47;;;8.77;;
73840;SDS011;62183;49.006;12.102;2022-07-09T20:43:44;9.77;;;8.97;;
73840;SDS011;62183;49.006;12.102;2022-07-09T20:46:09;10.10;;;9.30;;
73840;SDS011;62183;49.006;12.102;2022-07-09T20:48:34;10.00;;;9.20;;
73840;SDS011;62183;49.006;12.102;2022-07-09T20:50:59;9.67;;;8.97;;
73840;SDS011;62183;49.006;12.102;2022-07-09T20:53:25;9.80;;;8.80;;
73840;SDS011;62183;49.006;12.102;2022-07-09T20:55:50;10.50;;;9.17;;
73840;SDS011;62183;49.006;12.102;2022-07-09T20:58:15;9.87;;;8.97;;
73840;SDS011;62183;49.006;12.102;2022-07-09T21:00:40;9.83;;;9.07;;
73840;SDS011;62183;49.006;12.102;2022-07-09T21:03:05;10.00;;;9.20;;
73840;SDS011;62183;49.006;12.102;2022-07-09T21:05:30;9.87;;;8.97;;
73840;SDS011;62183;49.006;12.102;2022-07-09T21:07:56;9.33;;;8.53;;
73840;SDS011;62183;49.006;12.102;2022-07-09T21:10:21;9.20;;;8.50;;
73840;SDS011;62183;49.006;12.102;2022-07-09T21:12:46;9.60;;;8.90;;
73840;SDS011;62183;49.006;12.102;2022-07-09T21:15:11;9.20;;;8.40;;
73840;SDS011;62183;49.006;12.102;2022-07-09T21:17:36;9.03;;;8.33;;
73840;SDS011;62183;49.006;12.102;2022-07-09T21:20:02;11.03;;;9.37;;
73840;SDS011;62183;49.006;12.102;2022-07-09T21:22:27;10.43;;;9.43;;
73840;SDS011;62183;49.006;12.102;2022-07-09T21:24:52;9.70;;;9.00;;
73840;SDS011;62183;49.006;12.102;2022-07-09T21:27:17;9.10;;;8.43;;
73840;SDS011;62183;49.006;12.102;2022-07-09T21:29:42;10.00;;;9.30;;
73840;SDS011;62183;49.006;12.102;2022-07-09T21:32:08;9.93;;;9.13;;
73840;SDS011;62183;49.006;12.102;2022-07-09T21:34:33;10.27;;;9.37;;
73840;SDS011;62183;49.006;12.102;2022-07-09T21:36:58;9.23;;;8.53;;
73840;SDS011;62183;49.006;12.102;2022-07-09T21:39:23;9.10;;;8.40;;
73840;SDS011;62183;49.006;12.102;2022-07-09T21:41:48;9.30;;;8.60;;
73840;SDS011;62183;49.006;12.102;2022-07-09T21:44:13;9.53;;;8.77;;
73840;SDS011;62183;49.006;12.102;2022-07-09T21:46:39;9.73;;;9.00;;
73840;SDS011;62183;49.006;12.102;2022-07-09T21:49:04;10.10;;;9.10;;
73840;SDS011;62183;49.006;12.102;2022-07-09T21:51:29;10.37;;;9.03;;
73840;SDS011;62183;49.006;12.102;2022-07-09T21:53:54;9.83;;;9.03;;
73840;SDS011;62183;49.006;12.102;2022-07-09T21:56:19;9.20;;;8.50;;
73840;SDS011;62183;49.006;12.102;2022-07-09T21:58:45;9.83;;;9.03;;
73840;SDS011;62183;49.006;12.102;2022-07-09T22:01:10;9.63;;;8.93;;
73840;SDS011;62183;49.006;12.102;2022-07-09T22:03:35;10.00;;;9.10;;
73840;SDS011;62183;49.006;12.102;2022-07-09T22:06:00;10.60;;;9.70;;
73840;SDS011;62183;49.006;12.102;2022-07-09T22:08:25;10.10;;;9.20;;
73840;SDS011;62183;49.006;12.102;2022-07-09T22:10:51;10.20;;;9.30;;
73840;SDS011;62183;49.006;12.102;2022-07-09T22:13:16;9.20;;;8.50;;
73840;SDS011;62183;49.006;12.102;2022-07-09T22:15:41;10.70;;;8.75;;
73840;SDS011;62183;49.006;12.102;2022-07-09T22:18:07;9.45;;;8.75;;
73840;SDS011;62183;49.006;12.102;2022-07-09T22:20:32;9.93;;;8.97;;
73840;SDS011;62183;49.006;12.102;2022-07-09T22:22:57;10.03;;;9.20;;
73840;SDS011;62183;49.006;12.102;2022-07-09T22:25:22;10.25;;;9.20;;
73840;SDS011;62183;49.006;12.102;2022-07-09T22:27:48;8.80;;;8.10;;
73840;SDS011;62183;49.006;12.102;2022-07-09T22:30:13;8.83;;;8.13;;
73840;SDS011;62183;49.006;12.102;2022-07-09T22:32:39;9.00;;;8.20;;
73840;SDS011;62183;49.006;12.102;2022-07-09T22:35:05;9.13;;;8.40;;
73840;SDS011;62183;49.006;12.102;2022-07-09T22:37:30;8.57;;;7.97;;
73840;SDS011;62183;49.006;12.102;2022-07-09T22:39:55;8.33;;;7.73;;
73840;SDS011;62183;49.006;12.102;2022-07-09T22:42:20;8.23;;;7.63;;
73840;SDS011;62183;49.006;12.102;2022-07-09T22:44:46;8.70;;;8.00;;
73840;SDS011;62183;49.006;12.102;2022-07-09T22:47:11;9.27;;;8.57;;
73840;SDS011;62183;49.006;12.102;2022-07-09T22:49:36;9.07;;;8.37;;
73840;SDS011;62183;49.006;12.102;2022-07-09T22:52:01;9.77;;;8.87;;
73840;SDS011;62183;49.006;12.102;2022-07-09T22:54:26;9.50;;;8.60;;
73840;SDS011;62183;49.006;12.102;2022-07-09T22:56:51;9.03;;;8.30;;
73840;SDS011;62183;49.006;12.102;2022-07-09T22:59:17;8.80;;;8.13;;
73840;SDS011;62183;49.006;12.102;2022-07-09T23:01:42;8.93;;;8.23;;
73840;SDS011;62183;49.006;12.102;2022-07-09T23:04:07;9.47;;;8.63;;
73840;SDS011;62183;49.006;12.102;2022-07-09T23:06:32;9.37;;;8.47;;
73840;SDS011;62183;49.006;12.102;2022-07-09T23:08:57;9.23;;;8.53;;
73840;SDS011;62183;49.006;12.102;2022-07-09T23:11:23;8.70;;;8.00;;
73840;SDS011;62183;49.006;12.102;2022-07-09T23:13:49;8.77;;;8.07;;
73840;SDS011;62183;49.006;12.102;2022-07-09T23:16:14;8.97;;;8.07;;
73840;SDS011;62183;49.006;12.102;2022-07-09T23:18:39;8.30;;;7.70;;
73840;SDS011;62183;49.006;12.102;2022-07-09T23:21:04;8.70;;;8.10;;
73840;SDS011;62183;49.006;12.102;2022-07-09T23:23:30;8.77;;;8.07;;
73840;SDS011;62183;49.006;12.102;2022-07-09T23:25:55;9.37;;;8.53;;
73840;SDS011;62183;49.006;12.102;2022-07-09T23:28:20;9.17;;;8.37;;
73840;SDS011;62183;49.006;12.102;2022-07-09T23:30:45;9.30;;;8.50;;
73840;SDS011;62183;49.006;12.102;2022-07-09T23:33:10;9.07;;;8.37;;
73840;SDS011;62183;49.006;12.102;2022-07-09T23:35:35;8.53;;;7.83;;
73840;SDS011;62183;49.006;12.102;2022-07-09T23:38:01;8.63;;;7.93;;
73840;SDS011;62183;49.006;12.102;2022-07-09T23:40:26;9.10;;;8.30;;
73840;SDS011;62183;49.006;12.102;2022-07-09T23:42:51;8.77;;;8.07;;
73840;SDS011;62183;49.006;12.102;2022-07-09T23:45:16;9.87;;;8.23;;
73840;SDS011;62183;49.006;12.102;2022-07-09T23:47:41;8.70;;;8.10;;
73840;SDS011;62183;49.006;12.102;2022-07-09T23:50:07;8.37;;;7.77;;
73840;SDS011;62183;49.006;12.102;2022-07-09T23:52:32;8.57;;;7.78;;
73840;SDS011;62183;49.006;12.102;2022-07-09T23:54:57;8.03;;;7.47;;
73840;SDS011;62183;49.006;12.102;2022-07-09T23:57:22;8.40;;;7.63;;
73840;SDS011;62183;49.006;12.102;2022-07-09T23:59:48;8.13;;;7.53;;
